Terminal Aerodrome Forecast
Issued by NWS Raleigh/Durham, NC

Home | Current Version | Previous Version | Text Only | Print | Product List | Glossary On
Versions: 1 2 3 4 5 6 7 8 9 10 11 12 13 14 15 16 17 18 19 20 21
000
FTUS42 KRAH 200534
TAFFAY
TAF
KFAY 200534Z 2006/2106 03012KT P6SM -RADZ OVC035
      TEMPO 2006/2010 03012G22KT BKN030 OVC035
     FM201300 03015G25KT P6SM -DZ OVC035
     FM201900 02016G26KT P6SM -DZ OVC030=

USA.gov is the U.S. government's official web portal to all federal, state and local government web resources and services.